createdAt,value
2023-03-29T00:01:35.825Z,1.03
2023-03-29T00:04:10.746Z,1.01
2023-03-29T00:06:47.949Z,0.98
2023-03-29T00:09:21.575Z,0.95
2023-03-29T00:11:55.123Z,0.92
2023-03-29T00:14:31.132Z,0.90
2023-03-29T00:17:04.637Z,0.86
2023-03-29T00:19:38.303Z,0.82
2023-03-29T00:22:11.270Z,0.77
2023-03-29T00:24:48.031Z,0.73
2023-03-29T00:27:21.694Z,0.68
2023-03-29T00:29:55.138Z,0.64
2023-03-29T00:32:28.652Z,0.60
2023-03-29T00:35:02.447Z,0.56
2023-03-29T00:37:36.437Z,0.54
2023-03-29T00:40:13.640Z,0.49
2023-03-29T00:42:49.020Z,0.46
2023-03-29T00:45:25.436Z,0.40
2023-03-29T00:48:02.915Z,0.37
2023-03-29T00:50:40.020Z,0.33
2023-03-29T00:53:19.544Z,0.29
2023-03-29T00:55:59.058Z,0.27
2023-03-29T00:58:39.644Z,0.24
2023-03-29T01:01:19.694Z,0.22
2023-03-29T01:03:59.583Z,0.19
2023-03-29T01:06:36.618Z,0.17
2023-03-29T01:09:14.077Z,0.15
2023-03-29T01:11:50.966Z,0.16
2023-03-29T01:14:30.080Z,0.13
2023-03-29T01:17:04.676Z,0.12
2023-03-29T01:19:46.119Z,0.12
2023-03-29T01:22:31.606Z,0.10
2023-03-29T01:25:17.687Z,0.10
2023-03-29T01:27:56.622Z,0.12
2023-03-29T01:30:35.125Z,0.14
2023-03-29T01:33:14.654Z,0.16
2023-03-29T01:35:52.542Z,0.16
2023-03-29T01:38:32.232Z,0.18
2023-03-29T01:41:05.998Z,0.19
2023-03-29T01:43:46.086Z,0.21
2023-03-29T01:46:28.502Z,0.21
2023-03-29T01:49:05.466Z,0.23
2023-03-29T01:51:43.248Z,0.22
2023-03-29T01:54:21.980Z,0.25
2023-03-29T01:56:58.836Z,0.25
2023-03-29T01:59:35.803Z,0.25
2023-03-29T02:02:15.801Z,0.27
2023-03-29T02:04:53.128Z,0.28
2023-03-29T02:07:31.337Z,0.28
2023-03-29T02:10:05.728Z,0.27
2023-03-29T02:12:39.589Z,0.26
2023-03-29T02:15:19.272Z,0.27
2023-03-29T02:17:52.412Z,0.27
2023-03-29T02:20:28.997Z,0.27
2023-03-29T02:23:10.393Z,0.26
2023-03-29T02:25:45.762Z,0.23
2023-03-29T02:28:19.956Z,0.23
2023-03-29T02:30:58.278Z,0.22
2023-03-29T02:33:39.563Z,0.23
2023-03-29T02:36:19.931Z,0.22
2023-03-29T02:38:54.997Z,0.21
2023-03-29T02:41:30.006Z,0.18
2023-03-29T02:44:05.547Z,0.18
2023-03-29T02:46:42.750Z,0.14
2023-03-29T02:49:16.829Z,0.12
2023-03-29T02:51:52.819Z,0.09
2023-03-29T02:54:31.682Z,0.06
2023-03-29T02:57:08.120Z,0.04
2023-03-29T02:59:44.285Z,0.00
2023-03-29T03:02:18.137Z,-0.04
2023-03-29T03:04:51.938Z,-0.09
2023-03-29T03:07:26.180Z,-0.12
2023-03-29T03:10:00.129Z,-0.15
2023-03-29T03:12:33.701Z,-0.16
2023-03-29T03:15:08.199Z,-0.16
2023-03-29T03:17:44.996Z,-0.12
2023-03-29T03:20:22.210Z,-0.08
2023-03-29T03:22:57.700Z,-0.02
2023-03-29T03:25:31.789Z,0.03
2023-03-29T03:28:06.142Z,0.07
2023-03-29T03:30:39.743Z,0.10
2023-03-29T03:33:33.632Z,0.12
2023-03-29T03:36:31.786Z,0.16
2023-03-29T03:39:07.449Z,0.19
2023-03-29T03:41:40.927Z,0.20
2023-03-29T03:44:14.224Z,0.20
2023-03-29T03:46:48.281Z,0.19
2023-03-29T03:49:22.152Z,0.18
2023-03-29T03:51:55.697Z,0.18
2023-03-29T03:54:29.234Z,0.16
2023-03-29T03:57:38.152Z,0.12
2023-03-29T04:00:21.538Z,0.12
2023-03-29T04:03:07.215Z,0.11
2023-03-29T04:05:44.736Z,0.11
2023-03-29T04:08:19.505Z,0.08
2023-03-29T04:11:12.750Z,0.07
2023-03-29T04:13:48.403Z,0.03
2023-03-29T04:16:34.333Z,-0.01
2023-03-29T04:19:19.959Z,-0.04
2023-03-29T04:21:53.392Z,-0.07
2023-03-29T04:24:27.985Z,-0.09
2023-03-29T04:27:17.960Z,-0.10
2023-03-29T04:29:52.168Z,-0.13
2023-03-29T04:32:32.084Z,-0.15
2023-03-29T04:35:12.065Z,-0.15
2023-03-29T04:37:45.688Z,-0.17
2023-03-29T04:40:21.023Z,-0.16
2023-03-29T04:43:18.316Z,-0.16
2023-03-29T04:46:01.035Z,-0.17
2023-03-29T04:48:57.971Z,-0.18
2023-03-29T04:51:39.413Z,-0.17
2023-03-29T04:54:13.268Z,-0.17
2023-03-29T04:57:03.848Z,-0.16
2023-03-29T04:59:52.774Z,-0.17
2023-03-29T05:02:49.838Z,-0.19
2023-03-29T05:05:23.729Z,-0.21
2023-03-29T05:07:57.373Z,-0.26
2023-03-29T05:10:35.229Z,-0.30
2023-03-29T05:13:09.233Z,-0.32
2023-03-29T05:15:43.185Z,-0.33
2023-03-29T05:18:17.048Z,-0.34
2023-03-29T05:20:53.181Z,-0.34
2023-03-29T05:23:26.734Z,-0.31
2023-03-29T05:26:19.312Z,-0.27
2023-03-29T05:28:56.430Z,-0.24
2023-03-29T05:31:30.254Z,-0.16
2023-03-29T05:34:03.347Z,-0.10
2023-03-29T05:36:37.428Z,-0.05
2023-03-29T05:39:11.444Z,0.01
2023-03-29T05:41:45.499Z,0.09
2023-03-29T05:44:32.183Z,0.17
2023-03-29T05:47:13.394Z,0.27
2023-03-29T05:49:46.720Z,0.36
2023-03-29T05:52:24.089Z,0.46
2023-03-29T05:54:57.625Z,0.56
2023-03-29T05:57:31.003Z,0.68
2023-03-29T06:00:17.299Z,0.80
2023-03-29T06:02:51.407Z,0.95
2023-03-29T06:05:26.013Z,1.06
2023-03-29T06:08:10.034Z,1.19
2023-03-29T06:11:16.795Z,1.32
2023-03-29T06:14:13.908Z,1.40
2023-03-29T06:16:53.720Z,1.50
2023-03-29T06:19:28.548Z,1.55
2023-03-29T06:22:01.956Z,1.61
2023-03-29T06:24:35.283Z,1.65
2023-03-29T06:27:13.993Z,1.72
2023-03-29T06:29:48.414Z,1.82
2023-03-29T06:32:22.365Z,1.91
2023-03-29T06:35:07.277Z,2.03
2023-03-29T06:37:51.320Z,2.11
2023-03-29T06:40:48.409Z,2.23
2023-03-29T06:43:22.275Z,2.29
2023-03-29T06:46:01.187Z,2.35
2023-03-29T06:48:45.368Z,2.43
2023-03-29T06:51:19.887Z,2.51
2023-03-29T06:53:55.922Z,2.59
2023-03-29T06:56:30.164Z,2.69
2023-03-29T06:59:23.586Z,2.84
2023-03-29T07:02:17.648Z,2.97
2023-03-29T07:04:54.597Z,3.11
2023-03-29T07:07:53.957Z,3.24
2023-03-29T07:10:42.223Z,3.40
2023-03-29T07:13:42.846Z,3.52
2023-03-29T07:16:19.476Z,3.64
2023-03-29T07:18:55.584Z,3.73
2023-03-29T07:21:48.307Z,3.85
2023-03-29T07:24:22.607Z,3.96
2023-03-29T07:27:04.070Z,4.07
2023-03-29T07:29:39.958Z,4.21
2023-03-29T07:32:13.721Z,4.36
2023-03-29T07:34:50.106Z,4.51
2023-03-29T07:37:40.085Z,4.69
2023-03-29T07:40:16.395Z,4.81
2023-03-29T07:43:19.361Z,4.98
2023-03-29T07:45:53.221Z,5.14
2023-03-29T07:48:27.015Z,5.24
2023-03-29T07:51:07.615Z,5.37
2023-03-29T07:53:49.518Z,5.53
2023-03-29T07:56:41.812Z,5.66
2023-03-29T07:59:28.949Z,5.75
2023-03-29T08:02:14.603Z,5.87
2023-03-29T08:04:51.692Z,6.03
2023-03-29T08:07:46.637Z,6.17
2023-03-29T08:10:27.911Z,6.27
2023-03-29T08:13:21.601Z,6.36
2023-03-29T08:16:15.971Z,6.48
2023-03-29T08:18:55.414Z,6.55
2023-03-29T08:21:29.927Z,6.56
2023-03-29T08:24:03.438Z,6.55
2023-03-29T08:26:47.068Z,6.54
2023-03-29T08:29:22.935Z,6.50
2023-03-29T08:31:56.563Z,6.48
2023-03-29T08:34:32.186Z,6.49
2023-03-29T08:37:28.572Z,6.49
2023-03-29T08:40:04.206Z,6.42
2023-03-29T08:43:02.119Z,6.40
2023-03-29T08:45:49.720Z,6.39
2023-03-29T08:48:31.838Z,6.36
2023-03-29T08:51:08.655Z,6.30
2023-03-29T08:53:48.193Z,6.27
2023-03-29T08:56:34.139Z,6.25
2023-03-29T08:59:56.856Z,6.22
2023-03-29T09:02:32.995Z,6.21
2023-03-29T09:05:28.164Z,6.19
2023-03-29T09:08:17.772Z,6.11
2023-03-29T09:11:12.727Z,6.00
2023-03-29T09:13:57.384Z,5.90
2023-03-29T09:16:38.411Z,5.84
2023-03-29T09:19:21.790Z,5.86
2023-03-29T09:22:04.602Z,5.82
2023-03-29T09:24:48.858Z,5.69
2023-03-29T09:27:28.102Z,5.50
2023-03-29T09:30:27.160Z,5.42
2023-03-29T09:33:05.229Z,5.41
2023-03-29T09:36:05.290Z,5.42
2023-03-29T09:38:44.643Z,5.50
2023-03-29T09:41:26.791Z,5.61
2023-03-29T09:44:12.661Z,5.76
2023-03-29T09:46:53.900Z,5.93
2023-03-29T09:49:32.968Z,6.06
2023-03-29T09:52:13.173Z,6.19
2023-03-29T09:54:47.594Z,6.34
2023-03-29T09:57:44.160Z,6.43
2023-03-29T10:00:20.903Z,6.42
2023-03-29T10:03:00.430Z,6.46
2023-03-29T10:05:54.692Z,6.46
2023-03-29T10:08:30.490Z,6.49
2023-03-29T10:11:11.042Z,6.48
2023-03-29T10:13:50.843Z,6.43
2023-03-29T10:16:26.577Z,6.44
2023-03-29T10:19:00.024Z,6.44
2023-03-29T10:21:34.850Z,6.37
2023-03-29T10:24:10.518Z,6.36
2023-03-29T10:26:43.938Z,6.38
2023-03-29T10:29:17.805Z,6.42
2023-03-29T10:31:52.360Z,6.43
2023-03-29T10:34:28.600Z,6.44
2023-03-29T10:37:03.666Z,6.43
2023-03-29T10:39:38.390Z,6.45
2023-03-29T10:42:17.325Z,6.49
2023-03-29T10:44:58.562Z,6.52
2023-03-29T10:47:35.612Z,6.62
2023-03-29T10:50:16.809Z,6.77
2023-03-29T10:52:51.172Z,6.97
2023-03-29T10:55:30.534Z,7.17
2023-03-29T10:58:15.834Z,7.33
2023-03-29T11:00:57.422Z,7.45
2023-03-29T11:03:52.673Z,7.49
2023-03-29T11:06:33.461Z,7.48
2023-03-29T11:09:16.148Z,7.54
2023-03-29T11:12:15.136Z,7.60
2023-03-29T11:15:05.097Z,7.57
2023-03-29T11:17:53.870Z,7.63
2023-03-29T11:20:35.014Z,7.68
2023-03-29T11:23:22.573Z,7.71
2023-03-29T11:26:09.912Z,7.73
2023-03-29T11:28:49.314Z,7.81
2023-03-29T11:31:34.857Z,7.82
2023-03-29T11:34:23.445Z,7.93
2023-03-29T11:37:02.804Z,8.11
2023-03-29T11:39:45.350Z,8.13
2023-03-29T11:42:23.144Z,8.01
2023-03-29T11:44:58.448Z,7.99
2023-03-29T11:47:36.806Z,7.87
2023-03-29T11:50:19.857Z,7.75
2023-03-29T11:52:57.988Z,7.71
2023-03-29T11:55:33.998Z,7.72
2023-03-29T11:58:14.673Z,7.73
2023-03-29T12:00:55.742Z,7.70
2023-03-29T12:03:38.906Z,7.66
2023-03-29T12:06:21.982Z,7.68
2023-03-29T12:09:00.695Z,7.73
2023-03-29T12:11:40.469Z,7.72
2023-03-29T12:14:19.299Z,7.63
2023-03-29T12:16:56.311Z,7.60
2023-03-29T12:19:39.678Z,7.57
2023-03-29T12:22:15.843Z,7.55
2023-03-29T12:24:55.629Z,7.56
2023-03-29T12:27:34.192Z,7.59
2023-03-29T12:30:41.021Z,7.71
2023-03-29T12:33:29.675Z,7.83
2023-03-29T12:36:45.719Z,7.97
2023-03-29T12:39:41.034Z,7.92
2023-03-29T12:42:33.334Z,8.06
2023-03-29T12:45:21.364Z,8.20
2023-03-29T12:47:55.131Z,8.35
2023-03-29T12:50:33.485Z,8.45
2023-03-29T12:53:15.520Z,8.51
2023-03-29T12:55:56.743Z,8.62
2023-03-29T12:58:44.013Z,8.78
2023-03-29T13:01:31.579Z,8.97
2023-03-29T13:04:23.555Z,8.95
2023-03-29T13:07:04.716Z,9.03
2023-03-29T13:09:51.330Z,9.06
2023-03-29T13:12:32.953Z,9.01
2023-03-29T13:15:23.836Z,8.94
2023-03-29T13:18:12.370Z,9.04
2023-03-29T13:20:56.436Z,9.16
2023-03-29T13:23:42.526Z,9.28
2023-03-29T13:26:52.380Z,9.27
2023-03-29T13:29:49.739Z,9.23
2023-03-29T13:32:47.552Z,9.26
2023-03-29T13:35:32.384Z,9.28
2023-03-29T13:38:20.090Z,9.27
2023-03-29T13:41:08.432Z,9.33
2023-03-29T13:43:53.868Z,9.44
2023-03-29T13:46:37.815Z,9.48
2023-03-29T13:49:19.924Z,9.54
2023-03-29T13:52:16.572Z,9.51
2023-03-29T13:54:56.643Z,9.53
2023-03-29T13:57:39.264Z,9.53
2023-03-29T14:00:21.999Z,9.43
2023-03-29T14:02:56.465Z,9.43
2023-03-29T14:05:33.586Z,9.42
2023-03-29T14:08:14.987Z,9.38
2023-03-29T14:10:49.126Z,9.41
2023-03-29T14:13:27.202Z,9.45
2023-03-29T14:16:04.575Z,9.44
2023-03-29T14:18:41.576Z,9.47
2023-03-29T14:21:15.985Z,9.48
2023-03-29T14:23:55.843Z,9.48
2023-03-29T14:26:34.717Z,9.44
2023-03-29T14:29:12.133Z,9.37
2023-03-29T14:31:46.267Z,9.38
2023-03-29T14:34:20.770Z,9.42
2023-03-29T14:36:54.865Z,9.49
2023-03-29T14:39:28.454Z,9.49
2023-03-29T14:42:02.536Z,9.46
2023-03-29T14:44:37.186Z,9.40
2023-03-29T14:47:16.567Z,9.29
2023-03-29T14:49:50.601Z,9.20
2023-03-29T14:52:24.569Z,9.22
2023-03-29T14:55:00.428Z,9.27
2023-03-29T14:57:39.809Z,9.31
2023-03-29T15:00:31.874Z,9.34
2023-03-29T15:03:14.406Z,9.37
2023-03-29T15:05:54.007Z,9.37
2023-03-29T15:08:34.208Z,9.37
2023-03-29T15:11:16.070Z,9.37
2023-03-29T15:13:51.393Z,9.29
2023-03-29T15:16:25.443Z,9.24
2023-03-29T15:18:59.612Z,9.14
2023-03-29T15:21:35.876Z,9.06
2023-03-29T15:24:22.655Z,8.98
2023-03-29T15:27:05.701Z,8.90
2023-03-29T15:29:42.121Z,8.85
2023-03-29T15:32:24.015Z,8.80
2023-03-29T15:35:05.086Z,8.71
2023-03-29T15:37:38.851Z,8.63
2023-03-29T15:40:17.295Z,8.57
2023-03-29T15:42:50.896Z,8.49
2023-03-29T15:45:26.005Z,8.41
2023-03-29T15:48:02.122Z,8.30
2023-03-29T15:50:36.105Z,8.20
2023-03-29T15:53:15.224Z,8.12
2023-03-29T15:55:52.331Z,8.04
2023-03-29T15:58:29.531Z,7.93
2023-03-29T16:01:13.432Z,7.82
2023-03-29T16:03:48.059Z,7.73
2023-03-29T16:06:24.108Z,7.61
2023-03-29T16:08:57.591Z,7.49
2023-03-29T16:11:31.894Z,7.37
2023-03-29T16:14:08.129Z,7.27
2023-03-29T16:16:41.446Z,7.19
2023-03-29T16:19:15.138Z,7.13
2023-03-29T16:21:48.740Z,7.04
2023-03-29T16:24:24.229Z,6.96
2023-03-29T16:26:58.190Z,6.88
2023-03-29T16:29:32.112Z,6.78
2023-03-29T16:32:06.918Z,6.71
2023-03-29T16:37:14.843Z,6.55
2023-03-29T16:39:48.297Z,6.49
2023-03-29T16:42:21.372Z,6.44
2023-03-29T16:44:55.162Z,6.37
2023-03-29T16:47:28.668Z,6.28
2023-03-29T16:50:01.815Z,6.21
2023-03-29T16:52:35.280Z,6.12
2023-03-29T16:55:12.316Z,6.07
2023-03-29T16:57:46.238Z,5.97
2023-03-29T17:00:22.372Z,5.90
2023-03-29T17:02:56.585Z,5.80
2023-03-29T17:05:30.370Z,5.73
2023-03-29T17:08:03.971Z,5.68
2023-03-29T17:10:38.007Z,5.61
2023-03-29T17:13:12.894Z,5.52
2023-03-29T17:15:46.446Z,5.42
2023-03-29T17:18:20.355Z,5.35
2023-03-29T17:20:56.997Z,5.26
2023-03-29T17:23:30.824Z,5.19
2023-03-29T17:26:04.608Z,5.08
2023-03-29T17:28:38.306Z,5.00
2023-03-29T17:31:11.910Z,4.93
2023-03-29T17:33:45.091Z,4.83
2023-03-29T17:36:19.366Z,4.73
2023-03-29T17:38:54.973Z,4.63
2023-03-29T17:41:31.227Z,4.53
2023-03-29T17:44:05.010Z,4.43
2023-03-29T17:46:38.871Z,4.33
2023-03-29T17:49:14.179Z,4.24
2023-03-29T17:51:47.663Z,4.17
2023-03-29T17:54:21.257Z,4.08
2023-03-29T17:56:54.725Z,3.98
2023-03-29T17:59:28.289Z,3.90
2023-03-29T18:02:03.184Z,3.81
2023-03-29T18:04:36.619Z,3.72
2023-03-29T18:07:13.220Z,3.64
2023-03-29T18:09:53.293Z,3.56
2023-03-29T18:12:27.969Z,3.45
2023-03-29T18:15:03.268Z,3.39
2023-03-29T18:17:37.201Z,3.31
2023-03-29T18:20:12.065Z,3.23
2023-03-29T18:22:45.977Z,3.17
2023-03-29T18:25:21.304Z,3.10
2023-03-29T18:27:55.309Z,3.03
2023-03-29T18:30:29.018Z,2.95
2023-03-29T18:33:02.491Z,2.90
2023-03-29T18:35:36.954Z,2.81
2023-03-29T18:38:10.338Z,2.74
2023-03-29T18:40:43.713Z,2.69
2023-03-29T18:43:17.252Z,2.62
2023-03-29T18:45:51.358Z,2.56
2023-03-29T18:48:25.996Z,2.47
2023-03-29T18:51:02.794Z,2.41
2023-03-29T18:53:38.906Z,2.31
2023-03-29T18:56:12.634Z,2.25
2023-03-29T18:58:46.503Z,2.18
2023-03-29T19:01:19.705Z,2.09
2023-03-29T19:03:53.262Z,2.02
2023-03-29T19:06:26.631Z,1.94
2023-03-29T19:09:02.335Z,1.88
2023-03-29T19:11:37.029Z,1.81
2023-03-29T19:14:10.273Z,1.73
2023-03-29T19:16:43.467Z,1.69
2023-03-29T19:19:17.064Z,1.60
2023-03-29T19:21:51.832Z,1.55
2023-03-29T19:24:25.404Z,1.49
2023-03-29T19:26:58.746Z,1.42
2023-03-29T19:29:32.076Z,1.36
2023-03-29T19:32:07.128Z,1.29
2023-03-29T19:34:42.555Z,1.23
2023-03-29T19:37:17.759Z,1.14
2023-03-29T19:39:51.996Z,1.08
2023-03-29T19:42:25.594Z,1.01
2023-03-29T19:44:59.202Z,0.95
2023-03-29T19:47:33.436Z,0.91
2023-03-29T19:50:07.179Z,0.85
2023-03-29T19:52:41.270Z,0.80
2023-03-29T19:55:14.888Z,0.75
2023-03-29T19:57:48.291Z,0.66
2023-03-29T20:00:25.122Z,0.60
2023-03-29T20:02:58.741Z,0.54
2023-03-29T20:05:32.900Z,0.48
2023-03-29T20:08:06.728Z,0.45
2023-03-29T20:10:40.169Z,0.39
2023-03-29T20:13:14.558Z,0.32
2023-03-29T20:15:51.602Z,0.27
2023-03-29T20:18:24.780Z,0.24
2023-03-29T20:20:58.400Z,0.18
2023-03-29T20:23:32.191Z,0.10
2023-03-29T20:26:05.580Z,0.06
2023-03-29T20:28:38.973Z,0.02
2023-03-29T20:31:13.341Z,-0.05
2023-03-29T20:33:46.791Z,-0.06
2023-03-29T20:36:23.166Z,-0.06
2023-03-29T20:38:58.917Z,-0.08
2023-03-29T20:41:33.907Z,-0.11
2023-03-29T20:44:07.164Z,-0.14
2023-03-29T20:46:54.776Z,-0.20
2023-03-29T20:49:28.458Z,-0.21
2023-03-29T20:52:02.580Z,-0.25
2023-03-29T20:54:36.077Z,-0.27
2023-03-29T20:57:11.237Z,-0.31
2023-03-29T20:59:45.615Z,-0.35
2023-03-29T21:02:21.426Z,-0.40
2023-03-29T21:05:00.313Z,-0.45
2023-03-29T21:07:33.949Z,-0.51
2023-03-29T21:10:08.808Z,-0.54
2023-03-29T21:12:42.318Z,-0.58
2023-03-29T21:15:18.147Z,-0.61
2023-03-29T21:17:51.353Z,-0.65
2023-03-29T21:20:24.779Z,-0.68
2023-03-29T21:22:58.352Z,-0.72
2023-03-29T21:25:31.553Z,-0.75
2023-03-29T21:28:05.261Z,-0.79
2023-03-29T21:30:38.626Z,-0.82
2023-03-29T21:33:12.131Z,-0.86
2023-03-29T21:35:45.972Z,-0.88
2023-03-29T21:38:19.770Z,-0.97
2023-03-29T21:40:52.935Z,-1.01
2023-03-29T21:43:26.732Z,-1.03
2023-03-29T21:45:59.977Z,-1.06
2023-03-29T21:48:34.196Z,-1.05
2023-03-29T21:51:09.187Z,-1.09
2023-03-29T21:53:42.663Z,-1.10
2023-03-29T21:56:16.503Z,-1.12
2023-03-29T21:58:49.971Z,-1.16
2023-03-29T22:01:23.528Z,-1.19
2023-03-29T22:03:57.030Z,-1.23
2023-03-29T22:06:31.044Z,-1.24
2023-03-29T22:09:05.368Z,-1.28
2023-03-29T22:11:39.771Z,-1.29
2023-03-29T22:14:14.189Z,-1.33
2023-03-29T22:16:47.573Z,-1.36
2023-03-29T22:19:21.234Z,-1.37
2023-03-29T22:22:00.311Z,-1.41
2023-03-29T22:24:34.040Z,-1.43
2023-03-29T22:27:07.642Z,-1.45
2023-03-29T22:29:40.806Z,-1.47
2023-03-29T22:32:14.463Z,-1.49
2023-03-29T22:34:48.139Z,-1.50
2023-03-29T22:37:22.744Z,-1.49
2023-03-29T22:39:56.685Z,-1.51
2023-03-29T22:42:29.710Z,-1.54
2023-03-29T22:45:03.215Z,-1.54
2023-03-29T22:47:37.095Z,-1.57
2023-03-29T22:50:13.411Z,-1.55
2023-03-29T22:52:46.576Z,-1.57
2023-03-29T22:55:21.027Z,-1.60
2023-03-29T22:57:54.627Z,-1.62
2023-03-29T23:00:28.695Z,-1.63
2023-03-29T23:03:02.525Z,-1.64
2023-03-29T23:05:36.308Z,-1.64
2023-03-29T23:08:09.701Z,-1.66
2023-03-29T23:10:43.038Z,-1.69
2023-03-29T23:13:20.736Z,-1.69
2023-03-29T23:15:55.381Z,-1.72
2023-03-29T23:18:30.740Z,-1.75
2023-03-29T23:21:06.358Z,-1.76
2023-03-29T23:23:40.720Z,-1.81
2023-03-29T23:26:14.155Z,-1.86
2023-03-29T23:28:47.845Z,-1.89
2023-03-29T23:31:21.494Z,-1.92
2023-03-29T23:33:54.930Z,-1.97
2023-03-29T23:36:31.311Z,-2.00
2023-03-29T23:39:08.191Z,-1.99
2023-03-29T23:41:41.778Z,-2.00
2023-03-29T23:44:15.267Z,-2.01
2023-03-29T23:46:49.444Z,-2.04
2023-03-29T23:49:24.241Z,-2.07
2023-03-29T23:52:00.338Z,-2.10
2023-03-29T23:54:33.788Z,-2.10
2023-03-29T23:57:07.536Z,-2.11
2023-03-29T23:59:41.285Z,-2.13
